TGU weather

Toncontín International Airport
Tegucigalpa, Francisco Morazan, Honduras

Public forecast

Using degrees Celsius for public forecast. Weather courtesy of forecast.io.

METAR (pilot weather report)

Retrieved 2019/06/17 18:00 UTC (45 minutes ago):

MHTG 171800Z 09006KT 9999 SCT032 SCT250 28/16 Q1018 A3006 NOSIG

TAF (pilot weather forecast)

Retrieved 2019/06/17 18:30 UTC (15 minutes ago):

TAF MHTG 171620Z 1718/1818 09008KT 9999 SCT030TCU TX28/1720Z TN18/1812Z BECMG 1801/1803 35004KT SCT026